Time;durP1;ratioP1;P1;durP2;ratioP2;P2;SDS_P1;SDS_P2;PMS_P1;PMS_P2;Temp;Humidity;BMP_temperature;BMP_pressure;BME280_temperature;BME280_humidity;BME280_pressure;Samples;Min_cycle;Max_cycle;Signal;HPM_P1;HPM_P2
2022/12/09 00:01:49;;;;;;;46.28;22.05;;;;;;;0.09;100.00;100511.19;4992803;28;20056;-90
2022/12/09 00:04:17;;;;;;;51.00;24.08;;;;;;;0.11;100.00;100506.53;4960257;28;20081;-90
2022/12/09 00:09:46;;;;;;;57.15;24.17;;;;;;;0.06;100.00;100497.31;5073777;28;20040;-90
2022/12/09 00:19:26;;;;;;;48.00;22.45;;;;;;;0.15;100.00;100507.06;5073360;28;20043;-90
2022/12/09 00:22:08;;;;;;;53.27;23.37;;;;;;;0.11;100.00;100495.03;5055311;28;20464;-89
2022/12/09 00:27:58;;;;;;;55.47;22.65;;;;;;;0.13;100.00;100487.69;5077362;28;20491;-90
2022/12/09 00:33:51;;;;;;;58.90;24.38;;;;;;;0.17;100.00;100494.38;5075976;28;20063;-89
2022/12/09 00:39:48;;;;;;;52.25;24.15;;;;;;;0.20;100.00;100499.41;5077103;28;20081;-90
2022/12/09 00:42:14;;;;;;;56.15;25.15;;;;;;;0.19;100.00;100495.06;5077549;28;20469;-90
2022/12/09 00:44:42;;;;;;;55.93;25.07;;;;;;;0.24;100.00;100499.97;5059500;28;20115;-90
2022/12/09 00:47:21;;;;;;;58.33;26.08;;;;;;;0.27;100.00;100507.66;5042574;28;20037;-90
2022/12/09 00:50:17;;;;;;;61.03;26.70;;;;;;;0.23;100.00;100496.44;5034864;28;20052;-89
2022/12/09 01:02:24;;;;;;;62.78;25.90;;;;;;;0.33;100.00;100502.50;5034921;28;20032;-91
2022/12/09 01:04:51;;;;;;;56.75;25.27;;;;;;;0.32;100.00;100505.31;5018471;28;20112;-91
2022/12/09 01:10:42;;;;;;;52.73;25.27;;;;;;;0.33;100.00;100502.50;5076956;28;20039;-91
2022/12/09 01:16:35;;;;;;;57.95;24.85;;;;;;;0.30;100.00;100496.66;5076922;28;20061;-90
2022/12/09 01:22:41;;;;;;;54.92;24.90;;;;;;;0.30;100.00;100502.00;5077263;28;20081;-90
2022/12/09 01:29:00;;;;;;;58.00;25.08;;;;;;;0.36;100.00;100509.38;5078701;28;20277;-90
2022/12/09 01:38:48;;;;;;;59.75;25.58;;;;;;;0.33;100.00;100510.50;4997255;28;20528;-91
2022/12/09 01:41:15;;;;;;;60.57;26.37;;;;;;;0.39;100.00;100501.03;5025705;28;20045;-91
2022/12/09 01:43:49;;;;;;;62.80;25.88;;;;;;;0.50;100.00;100506.13;5038452;28;20170;-91
2022/12/09 01:46:41;;;;;;;62.78;26.95;;;;;;;0.51;100.00;100509.63;4976998;28;20135;-91
2022/12/09 01:52:31;;;;;;;67.57;28.50;;;;;;;0.47;100.00;100505.59;4975605;28;20042;-91
2022/12/09 01:58:56;;;;;;;62.92;25.42;;;;;;;0.50;100.00;100515.94;4976093;28;20105;-91
2022/12/09 02:05:05;;;;;;;76.85;27.70;;;;;;;0.43;100.00;100502.41;4977624;28;20045;-90
2022/12/09 02:28:11;;;;;;;70.23;27.83;;;;;;;0.73;100.00;100510.06;4899018;29;20174;-90
2022/12/09 02:54:52;;;;;;;;;;;;;;;;;;;;;
2022/12/09 03:17:57;;;;;;;73.23;26.93;;;;;;;1.07;100.00;100494.00;5074134;28;20035;-90
2022/12/09 03:24:06;;;;;;;;;;;;;;;;;;;;;
2022/12/09 03:26:42;;;;;;;79.28;28.00;;;;;;;1.13;100.00;100480.00;5074486;28;20025;-90
2022/12/09 03:29:18;;;;;;;76.78;28.17;;;;;;;1.10;100.00;100460.78;5040473;28;20106;-90
2022/12/09 03:39:15;;;;;;;;;;;;;;;;;;;;;
2022/12/09 03:45:32;;;;;;;;;;;;;;;;;;;;;
2022/12/09 03:48:26;;;;;;;75.90;28.40;;;;;;;1.24;100.00;100468.19;5054744;28;20043;-90
2022/12/09 03:51:01;;;;;;;80.30;29.20;;;;;;;1.25;100.00;100463.66;5023936;28;20029;-90
2022/12/09 04:04:22;;;;;;;83.67;27.40;;;;;;;1.35;100.00;100475.88;5012375;28;20049;-91
2022/12/09 04:07:36;;;;;;;;;;;;;;;;;;;;;
2022/12/09 04:13:29;;;;;;;67.95;25.98;;;;;;;1.26;100.00;100462.69;5012088;28;20091;-90
2022/12/09 04:19:29;;;;;;;68.47;26.27;;;;;;;1.21;100.00;100465.81;4991845;28;20126;-91
2022/12/09 04:22:15;;;;;;;79.25;28.17;;;;;;;1.20;100.00;100464.16;4960846;28;20031;-91
2022/12/09 04:31:59;;;;;;;66.88;26.20;;;;;;;1.22;100.00;100462.16;5031498;28;20048;-90
2022/12/09 04:35:21;;;;;;;63.57;25.80;;;;;;;1.17;100.00;100451.13;5014518;28;20112;-90
2022/12/09 04:46:29;;;;;;;71.95;27.35;;;;;;;1.08;100.00;100457.44;5051392;28;20133;-91
2022/12/09 04:53:28;;;;;;;71.73;27.77;;;;;;;1.12;100.00;100454.28;5073061;28;20075;-90
2022/12/09 04:59:21;;;;;;;77.22;29.42;;;;;;;1.06;100.00;100446.91;5073146;28;20499;-91
2022/12/09 05:05:22;;;;;;;75.85;28.73;;;;;;;1.01;100.00;100451.91;5073175;28;20071;-90
2022/12/09 05:11:58;;;;;;;79.78;28.65;;;;;;;1.08;100.00;100462.78;4992155;28;20044;-90
2022/12/09 05:14:31;;;;;;;78.05;29.23;;;;;;;1.04;100.00;100456.94;4996264;28;20117;-91
2022/12/09 05:20:22;;;;;;;73.80;28.52;;;;;;;1.02;100.00;100451.75;4938158;29;20088;-91
2022/12/09 05:26:14;;;;;;;75.30;29.45;;;;;;;1.09;100.00;100459.13;4936991;29;20514;-90
2022/12/09 05:28:46;;;;;;;72.93;29.10;;;;;;;1.06;100.00;100446.91;4921116;29;20133;-90
2022/12/09 05:31:29;;;;;;;;;;;;;;;;;;;;;
2022/12/09 05:34:08;;;;;;;81.82;30.85;;;;;;;1.03;100.00;100452.59;4937784;29;20048;-90
2022/12/09 05:36:36;;;;;;;77.13;28.77;;;;;;;0.97;100.00;100455.91;4927260;28;20047;-91
2022/12/09 05:39:24;;;;;;;75.25;29.25;;;;;;;0.96;100.00;100451.56;5018429;28;20068;-90
2022/12/09 05:41:50;;;;;;;77.60;28.98;;;;;;;0.92;100.00;100455.56;5058738;28;20052;-90
2022/12/09 05:44:20;;;;;;;83.63;29.97;;;;;;;0.89;100.00;100462.06;5057977;28;20480;-90
2022/12/09 05:46:56;;;;;;;87.90;31.60;;;;;;;0.92;100.00;100461.75;5058057;28;20090;-90
2022/12/09 05:49:34;;;;;;;77.65;28.88;;;;;;;0.93;100.00;100467.91;5015868;28;20100;-90
2022/12/09 05:52:14;;;;;;;85.03;28.60;;;;;;;0.83;100.00;100452.84;5040802;28;20484;-91
2022/12/09 05:54:55;;;;;;;94.25;30.70;;;;;;;0.81;100.00;100457.53;5075759;28;20056;-90
2022/12/09 05:57:33;;;;;;;80.72;29.73;;;;;;;0.84;100.00;100457.22;4969254;28;20038;-89
2022/12/09 06:00:15;;;;;;;;;;;;;;;;;;;;;
2022/12/09 06:02:43;;;;;;;77.55;28.58;;;;;;;0.86;100.00;100446.38;5076288;28;20376;-90
2022/12/09 06:05:11;;;;;;;83.93;29.15;;;;;;;0.86;100.00;100449.88;5041359;28;20044;-90
2022/12/09 06:07:47;;;;;;;85.53;29.55;;;;;;;0.86;100.00;100446.38;5058596;28;20032;-90
2022/12/09 06:14:12;;;;;;;76.97;28.02;;;;;;;0.97;100.00;100454.06;5075750;28;20028;-90
2022/12/09 06:16:40;;;;;;;84.35;27.80;;;;;;;0.94;100.00;100442.88;5057349;28;20102;-89
2022/12/09 06:22:28;;;;;;;70.82;27.58;;;;;;;0.93;100.00;100447.41;5075048;28;20034;-90
2022/12/09 06:31:58;;;;;;;71.60;26.70;;;;;;;1.01;100.00;100451.91;5074788;28;20037;-90
2022/12/09 06:37:47;;;;;;;71.65;28.30;;;;;;;1.03;100.00;100453.44;5075020;28;20434;-88
2022/12/09 06:40:20;;;;;;;76.18;27.88;;;;;;;1.02;100.00;100454.44;5024423;28;20199;-88
2022/12/09 06:42:59;;;;;;;69.60;26.65;;;;;;;0.94;100.00;100442.88;5074891;28;20033;-89
2022/12/09 06:45:29;;;;;;;69.53;26.17;;;;;;;0.96;100.00;100443.53;5057174;28;20048;-88
2022/12/09 06:48:00;;;;;;;69.40;25.45;;;;;;;0.97;100.00;100442.56;5074704;28;20059;-88
2022/12/09 06:50:38;;;;;;;70.18;27.40;;;;;;;1.03;100.00;100445.41;5057898;28;20047;-88
2022/12/09 06:53:08;;;;;;;69.10;26.67;;;;;;;1.02;100.00;100445.59;5042167;28;20085;-88
2022/12/09 06:55:35;;;;;;;67.55;27.60;;;;;;;1.00;100.00;100443.03;5056959;28;20077;-88
2022/12/09 06:58:01;;;;;;;69.18;27.38;;;;;;;0.95;100.00;100442.72;5056622;28;20024;-89
2022/12/09 07:00:35;;;;;;;70.50;26.53;;;;;;;0.95;100.00;100442.72;5056435;28;20035;-89
2022/12/09 07:03:10;;;;;;;76.90;27.52;;;;;;;0.91;100.00;100433.34;5074441;28;20036;-89
2022/12/09 07:05:42;;;;;;;72.95;27.08;;;;;;;0.97;100.00;100451.38;5056706;28;20119;-89
2022/12/09 07:08:12;;;;;;;68.90;27.40;;;;;;;0.98;100.00;100450.41;5073997;28;20036;-89
2022/12/09 07:10:50;;;;;;;;;;;;;;;;;;;;;
2022/12/09 07:14:07;;;;;;;70.45;26.50;;;;;;;0.98;100.00;100461.09;5058455;28;20269;-89
2022/12/09 07:16:43;;;;;;;73.15;26.63;;;;;;;0.97;100.00;100456.72;5056428;28;20028;-88
2022/12/09 07:19:22;;;;;;;68.47;25.50;;;;;;;0.93;100.00;100444.72;5040581;28;20136;-88
2022/12/09 07:21:52;;;;;;;69.43;27.52;;;;;;;0.93;100.00;100452.75;5055586;28;20464;-89
2022/12/09 07:24:19;;;;;;;73.60;27.73;;;;;;;0.98;100.00;100460.25;5073623;28;20039;-89
2022/12/09 07:26:45;;;;;;;64.38;25.95;;;;;;;1.04;100.00;100465.78;5056254;28;20119;-89
2022/12/09 07:29:12;;;;;;;71.43;27.73;;;;;;;1.11;100.00;100470.47;5056010;28;20548;-89
2022/12/09 07:31:38;;;;;;;66.90;25.65;;;;;;;1.12;100.00;100469.47;5055975;28;20024;-88
2022/12/09 07:34:06;;;;;;;68.60;27.07;;;;;;;1.11;100.00;100465.13;5056049;28;20082;-89
2022/12/09 07:36:43;;;;;;;;;;;;;;;;;;;;;
2022/12/09 07:39:17;;;;;;;70.32;27.58;;;;;;;1.18;100.00;100467.00;5074052;28;20033;-88
2022/12/09 07:41:57;;;;;;;71.30;30.33;;;;;;;1.26;100.00;100476.03;5055319;28;20130;-89
2022/12/09 07:44:24;;;;;;;70.53;28.23;;;;;;;1.26;100.00;100482.22;5056565;28;20024;-89
2022/12/09 07:47:04;;;;;;;65.07;27.58;;;;;;;1.25;100.00;100471.69;5055735;28;20035;-88
2022/12/09 07:49:38;;;;;;;66.07;26.95;;;;;;;1.27;100.00;100483.91;5040352;28;20491;-88
2022/12/09 07:52:11;;;;;;;63.03;27.88;;;;;;;1.28;100.00;100480.19;5055212;28;20033;-88
2022/12/09 07:54:45;;;;;;;64.43;26.70;;;;;;;1.27;100.00;100480.38;5055740;28;20475;-88
2022/12/09 07:57:29;;;;;;;;;;;;;;;;;;;;;
2022/12/09 07:59:57;;;;;;;62.15;25.48;;;;;;;1.30;100.00;100485.38;5058402;28;20032;-88
2022/12/09 08:02:25;;;;;;;57.47;25.92;;;;;;;1.31;100.00;100479.03;5038932;28;20112;-89
2022/12/09 08:04:58;;;;;;;59.85;27.30;;;;;;;1.31;100.00;100487.06;5055230;28;20029;-88
2022/12/09 08:07:24;;;;;;;60.20;26.43;;;;;;;1.33;100.00;100480.56;5055513;28;20034;-89
2022/12/09 08:09:55;;;;;;;61.72;26.10;;;;;;;1.39;100.00;100489.78;5073768;28;20373;-88
2022/12/09 08:13:03;;;;;;;;;;;;;;;;;;;;;
2022/12/09 08:15:34;;;;;;;58.77;24.83;;;;;;;1.41;100.00;100482.41;5074410;28;20032;-88
2022/12/09 08:18:29;;;;;;;57.33;25.13;;;;;;;1.45;100.00;100490.91;5056162;28;20376;-89
2022/12/09 08:20:57;;;;;;;57.50;24.98;;;;;;;1.45;100.00;100483.75;5050554;28;20041;-89
2022/12/09 08:23:28;;;;;;;52.03;25.70;;;;;;;1.50;100.00;100480.59;5055399;28;20508;-88
2022/12/09 08:26:00;;;;;;;61.15;25.92;;;;;;;1.50;100.00;100486.75;5039423;28;20483;-88
2022/12/09 08:28:33;;;;;;;57.60;24.63;;;;;;;1.51;100.00;100485.75;5073789;28;20025;-88
2022/12/09 08:31:06;;;;;;;53.53;24.05;;;;;;;1.60;100.00;100493.81;5055704;28;20086;-89
2022/12/09 08:33:33;;;;;;;57.53;25.67;;;;;;;1.64;100.00;100495.97;5056182;28;20421;-88
2022/12/09 08:35:59;;;;;;;57.17;25.13;;;;;;;1.63;100.00;100480.94;5055056;28;20115;-89
2022/12/09 08:38:31;;;;;;;54.17;24.52;;;;;;;1.66;100.00;100487.78;5073285;28;20028;-88
2022/12/09 08:41:02;;;;;;;54.73;25.17;;;;;;;1.72;100.00;100476.44;5038923;28;20136;-88
2022/12/09 08:43:28;;;;;;;56.90;25.35;;;;;;;1.74;100.00;100477.09;5056040;28;20040;-88
2022/12/09 08:45:57;;;;;;;53.03;24.27;;;;;;;1.78;100.00;100473.06;5055182;28;20365;-88
2022/12/09 08:48:22;;;;;;;51.30;22.83;;;;;;;1.80;100.00;100472.91;5059078;28;20103;-88
2022/12/09 08:50:52;;;;;;;55.10;23.95;;;;;;;1.82;100.00;100474.41;5059533;28;20460;-88
2022/12/09 08:53:18;;;;;;;56.47;24.33;;;;;;;1.89;100.00;100482.59;5059026;28;20123;-88
2022/12/09 08:55:43;;;;;;;59.40;24.52;;;;;;;1.93;100.00;100476.78;5059667;28;20052;-88
2022/12/09 08:58:21;;;;;;;;;;;;;;;;;;;;;
2022/12/09 09:00:59;;;;;;;61.58;25.58;;;;;;;1.95;100.00;100478.41;5060941;28;20024;-88
2022/12/09 09:03:28;;;;;;;58.03;25.00;;;;;;;1.92;100.00;100483.13;5059510;28;20029;-88
2022/12/09 09:06:07;;;;;;;55.75;25.75;;;;;;;1.85;100.00;100479.44;5058638;28;20039;-89
2022/12/09 09:08:42;;;;;;;52.60;23.23;;;;;;;1.75;100.00;100481.44;5042384;28;20044;-88
2022/12/09 09:11:13;;;;;;;52.20;24.60;;;;;;;1.78;100.00;100489.13;5059023;28;20056;-88
2022/12/09 09:13:43;;;;;;;57.50;26.02;;;;;;;1.82;100.00;100490.47;5058663;28;20112;-88
2022/12/09 09:16:22;;;;;;;55.13;24.05;;;;;;;1.91;100.00;100485.97;5058526;28;20063;-88
2022/12/09 09:18:53;;;;;;;56.40;24.48;;;;;;;1.97;100.00;100485.28;5058896;28;20043;-88
2022/12/09 09:21:27;;;;;;;55.38;23.80;;;;;;;2.06;100.00;100492.28;5058077;28;20115;-89
2022/12/09 09:23:57;;;;;;;59.65;23.98;;;;;;;2.20;100.00;100492.63;5058839;28;20106;-89
2022/12/09 09:26:29;;;;;;;63.30;24.33;;;;;;;2.35;100.00;100498.97;5042305;28;20071;-89
2022/12/09 09:29:00;;;;;;;54.35;25.02;;;;;;;2.52;100.00;100506.97;5057953;28;20040;-88
2022/12/09 09:31:33;;;;;;;55.97;25.45;;;;;;;2.56;100.00;100501.09;5041453;28;20024;-88
2022/12/09 09:34:01;;;;;;;54.58;24.38;;;;;;;2.66;100.00;100494.69;5059166;28;20048;-88
2022/12/09 09:36:34;;;;;;;53.08;25.48;;;;;;;2.84;100.00;100494.50;5041363;28;20043;-88
2022/12/09 09:42:08;;;;;;;53.20;24.55;;;;;;;3.11;100.00;100498.53;5037973;28;20048;-89
2022/12/09 09:44:59;;;;;;;49.35;23.85;;;;;;;3.45;100.00;100500.03;5056225;28;20025;-88
2022/12/09 09:47:43;;;;;;;48.47;22.60;;;;;;;3.62;100.00;100487.38;5037880;28;20033;-88
2022/12/09 09:50:29;;;;;;;50.80;23.17;;;;;;;3.72;100.00;100482.59;5038875;28;20048;-88
2022/12/09 09:53:15;;;;;;;50.53;22.50;;;;;;;3.92;100.00;100484.78;5039048;28;20461;-89
2022/12/09 09:55:53;;;;;;;38.42;19.15;;;;;;;4.18;100.00;100495.13;5023293;28;20041;-88
2022/12/09 09:58:36;;;;;;;41.67;17.30;;;;;;;4.26;100.00;100476.22;5054970;28;20043;-89
2022/12/09 10:01:16;;;;;;;31.75;16.58;;;;;;;4.11;100.00;100475.38;5038627;28;20108;-88
2022/12/09 10:03:51;;;;;;;30.27;14.57;;;;;;;3.83;100.00;100470.59;5055996;28;20064;-89
2022/12/09 10:06:38;;;;;;;27.23;12.60;;;;;;;3.65;100.00;100481.63;5038519;28;20039;-88
2022/12/09 10:09:39;;;;;;;27.52;12.95;;;;;;;3.45;100.00;100486.63;5054611;28;20036;-88
2022/12/09 10:12:43;;;;;;;24.25;12.55;;;;;;;3.31;100.00;100485.53;4994093;28;20057;-89
2022/12/09 10:15:20;;;;;;;28.48;13.60;;;;;;;3.27;100.00;100484.22;5054931;28;20476;-88
2022/12/09 10:17:59;;;;;;;27.10;13.30;;;;;;;3.30;100.00;100489.22;5037442;28;20032;-88
2022/12/09 10:20:36;;;;;;;28.27;13.50;;;;;;;3.34;100.00;100494.06;5055385;28;20037;-88
2022/12/09 10:23:05;;;;;;;29.40;14.20;;;;;;;3.37;100.00;100476.78;5055235;28;20109;-88
2022/12/09 10:25:52;;;;;;;;;;;;;;;;;;;;;
2022/12/09 10:28:29;;;;;;;27.73;13.48;;;;;;;3.68;100.00;100484.78;5055084;28;20033;-87
2022/12/09 10:31:12;;;;;;;23.73;11.63;;;;;;;3.77;100.00;100484.72;5039142;28;20039;-89
2022/12/09 10:33:43;;;;;;;21.27;11.20;;;;;;;3.87;100.00;100474.59;5037205;28;20483;-89
2022/12/09 10:36:36;;;;;;;25.27;13.07;;;;;;;4.11;100.00;100470.84;5054637;28;20514;-88
2022/12/09 10:39:29;;;;;;;;;;;;;;;;;;;;;
2022/12/09 10:44:47;;;;;;;29.13;14.07;;;;;;;4.22;96.77;100475.78;5075290;28;20051;-88
2022/12/09 10:47:28;;;;;;;29.75;14.23;;;;;;;4.04;99.44;100473.44;5056953;28;20037;-88
2022/12/09 10:49:58;;;;;;;31.88;13.55;;;;;;;3.71;99.18;100482.78;5074556;28;20476;-89
2022/12/09 10:52:45;;;;;;;30.10;13.95;;;;;;;3.51;100.00;100475.19;5074834;28;20020;-89
2022/12/09 10:55:35;;;;;;;26.83;12.63;;;;;;;3.19;99.81;100476.22;5056846;28;20036;-91
2022/12/09 10:58:14;;;;;;;27.00;12.82;;;;;;;2.89;99.11;100487.56;5056503;28;20032;-88
2022/12/09 11:00:39;;;;;;;27.75;12.82;;;;;;;2.67;100.00;100474.94;5056712;28;20024;-88
2022/12/09 11:03:26;;;;;;;28.93;12.70;;;;;;;2.63;100.00;100471.78;5056555;28;20119;-88
2022/12/09 11:06:08;;;;;;;27.75;12.40;;;;;;;2.77;100.00;100467.53;5056062;28;20024;-88
2022/12/09 11:08:44;;;;;;;23.98;11.77;;;;;;;2.97;100.00;100462.59;5074223;28;20048;-88
2022/12/09 11:11:17;;;;;;;28.58;13.27;;;;;;;3.13;100.00;100465.19;5073377;28;20028;-88
2022/12/09 11:13:45;;;;;;;26.42;12.07;;;;;;;3.23;100.00;100466.81;5040181;28;20062;-88
2022/12/09 11:16:25;;;;;;;29.23;13.30;;;;;;;3.25;99.87;100471.00;5073762;28;20029;-89
2022/12/09 11:18:55;;;;;;;29.55;14.20;;;;;;;3.31;99.61;100464.91;5056196;28;20028;-90
2022/12/09 11:21:32;;;;;;;31.90;14.35;;;;;;;3.41;100.00;100467.38;5055507;28;20042;-89
2022/12/09 11:24:03;;;;;;;32.88;14.55;;;;;;;3.58;99.56;100465.41;5056735;28;20033;-89
2022/12/09 11:26:40;;;;;;;31.20;13.73;;;;;;;3.55;97.51;100462.25;5056316;28;20040;-88
2022/12/09 11:29:25;;;;;;;27.03;13.67;;;;;;;3.31;96.95;100469.47;5056915;28;20032;-89
2022/12/09 11:31:53;;;;;;;30.17;11.98;;;;;;;3.14;98.26;100468.69;5074360;28;20029;-89
2022/12/09 11:34:26;;;;;;;29.75;12.63;;;;;;;3.20;98.56;100469.84;5056059;28;20036;-89
2022/12/09 11:36:55;;;;;;;27.95;13.75;;;;;;;3.09;98.29;100455.00;5039416;28;20035;-88
2022/12/09 11:39:34;;;;;;;31.00;13.15;;;;;;;3.11;99.50;100464.53;5055889;28;20043;-88
2022/12/09 11:42:23;;;;;;;30.57;13.80;;;;;;;3.14;99.89;100468.69;5054995;28;20048;-89
2022/12/09 11:45:00;;;;;;;33.45;14.15;;;;;;;3.12;99.41;100473.41;5056015;28;20359;-88
2022/12/09 11:47:37;;;;;;;33.17;13.98;;;;;;;3.00;99.65;100464.94;5055549;28;20112;-88
2022/12/09 11:50:31;;;;;;;31.15;13.30;;;;;;;3.10;100.00;100464.69;5056727;28;20025;-88
2022/12/09 11:53:23;;;;;;;28.20;13.18;;;;;;;3.06;100.00;100447.31;5033206;28;20076;-88
2022/12/09 11:55:55;;;;;;;36.77;14.20;;;;;;;3.05;100.00;100461.72;5055998;28;20460;-88
2022/12/09 11:58:35;;;;;;;32.22;13.90;;;;;;;3.04;99.58;100460.91;5056019;28;20460;-88
2022/12/09 12:01:16;;;;;;;32.03;14.38;;;;;;;3.14;100.00;100456.16;5073898;28;20104;-89
2022/12/09 12:04:00;;;;;;;39.28;15.43;;;;;;;3.24;100.00;100457.75;5055849;28;20452;-88
2022/12/09 12:06:32;;;;;;;27.15;12.30;;;;;;;3.11;97.89;100458.34;5055878;28;20036;-88
2022/12/09 12:09:29;;;;;;;31.17;12.67;;;;;;;3.07;98.59;100473.94;5055728;28;20097;-88
2022/12/09 12:12:16;;;;;;;33.05;12.55;;;;;;;3.02;98.81;100470.13;5022414;28;20480;-89
2022/12/09 12:14:45;;;;;;;31.77;12.93;;;;;;;2.89;97.79;100458.09;5055947;28;20040;-88
2022/12/09 12:17:24;;;;;;;31.98;12.10;;;;;;;2.84;98.95;100460.47;5055386;28;20063;-89
2022/12/09 12:19:52;;;;;;;31.50;11.40;;;;;;;2.83;98.05;100453.44;5073563;28;20036;-89
2022/12/09 12:23:04;;;;;;;31.63;11.37;;;;;;;2.90;98.88;100461.63;5057831;28;20119;-88
2022/12/09 12:26:02;;;;;;;26.23;10.80;;;;;;;2.92;99.47;100457.78;5077611;28;20029;-89
2022/12/09 12:28:54;;;;;;;25.00;11.57;;;;;;;2.96;99.09;100460.94;5059417;28;20048;-88
2022/12/09 12:31:45;;;;;;;26.35;10.75;;;;;;;2.94;98.70;100468.31;5079418;28;20029;-88
2022/12/09 12:34:29;;;;;;;29.30;11.90;;;;;;;2.87;98.42;100464.66;5058762;28;20033;-87
2022/12/09 12:37:25;;;;;;;27.17;11.50;;;;;;;2.86;98.15;100460.31;5060027;28;20067;-89
2022/12/09 12:40:04;;;;;;;27.13;12.23;;;;;;;2.75;98.08;100459.69;5059622;28;20033;-88
2022/12/09 12:42:46;;;;;;;31.00;12.63;;;;;;;2.71;97.49;100462.88;5059299;28;20091;-87
2022/12/09 12:48:28;;;;;;;35.50;13.18;;;;;;;2.43;96.94;100455.25;5077172;28;20133;-88
2022/12/09 12:50:53;;;;;;;26.27;11.27;;;;;;;2.36;95.47;100457.81;5059211;28;20049;-88
2022/12/09 12:53:34;;;;;;;26.70;11.80;;;;;;;2.35;96.96;100455.28;5059335;28;20366;-88
2022/12/09 12:56:18;;;;;;;33.38;12.77;;;;;;;2.32;98.06;100445.75;5058997;28;20029;-88
2022/12/09 12:59:13;;;;;;;26.55;10.82;;;;;;;2.35;97.68;100449.91;5058869;28;20024;-88
2022/12/09 13:02:00;;;;;;;30.17;11.93;;;;;;;2.30;96.83;100446.94;5058722;28;20028;-88
2022/12/09 13:04:55;;;;;;;32.22;13.10;;;;;;;2.31;98.23;100448.63;5059191;28;20032;-88
2022/12/09 13:07:52;;;;;;;27.88;12.75;;;;;;;2.42;99.39;100434.84;5028592;28;20043;-88
2022/12/09 13:10:50;;;;;;;26.95;11.43;;;;;;;2.47;97.96;100453.91;5042058;28;20037;-88
2022/12/09 13:13:30;;;;;;;31.20;11.82;;;;;;;2.44;97.18;100440.88;5024737;28;20098;-88
2022/12/09 13:16:26;;;;;;;25.83;11.20;;;;;;;2.37;96.49;100443.41;5076600;28;20029;-89
2022/12/09 13:18:53;;;;;;;25.73;12.25;;;;;;;2.27;96.71;100432.91;5056690;28;20043;-87
2022/12/09 13:21:21;;;;;;;26.98;11.27;;;;;;;2.24;96.85;100427.03;5057735;28;20032;-89
2022/12/09 13:24:17;;;;;;;26.83;11.73;;;;;;;2.30;97.51;100430.88;5058115;28;20391;-87
2022/12/09 13:27:31;;;;;;;28.10;11.85;;;;;;;2.26;95.66;100439.25;5058580;28;20090;-87
2022/12/09 13:29:56;;;;;;;29.73;11.45;;;;;;;2.12;95.91;100455.16;5042274;28;20040;-87
2022/12/09 13:32:48;;;;;;;29.93;12.73;;;;;;;2.04;97.50;100434.63;5057519;28;20525;-87
2022/12/09 13:35:31;;;;;;;24.77;11.88;;;;;;;2.06;97.08;100440.63;5057939;28;20040;-87
2022/12/09 13:37:58;;;;;;;31.30;11.48;;;;;;;2.09;97.77;100441.09;5058896;28;20037;-86
2022/12/09 13:40:30;;;;;;;28.00;12.10;;;;;;;2.13;97.29;100440.75;5058110;28;20036;-87
2022/12/09 13:43:01;;;;;;;28.40;11.52;;;;;;;2.15;96.56;100452.97;5058604;28;20039;-87
2022/12/09 13:45:56;;;;;;;27.52;12.00;;;;;;;2.10;96.30;100456.16;5075436;28;20036;-84
2022/12/09 13:48:21;;;;;;;27.90;12.80;;;;;;;2.14;98.18;100448.66;5031038;28;20050;-84
2022/12/09 13:50:58;;;;;;;32.43;12.53;;;;;;;2.14;98.14;100448.66;5058558;28;20464;-84
2022/12/09 13:53:34;;;;;;;31.13;12.95;;;;;;;2.18;98.86;100454.50;5058419;28;20093;-84
2022/12/09 13:56:08;;;;;;;28.45;12.40;;;;;;;2.19;98.40;100456.16;5075807;28;20032;-84
2022/12/09 13:58:58;;;;;;;29.10;12.18;;;;;;;2.16;97.37;100454.66;5075679;28;20028;-84
2022/12/09 14:01:40;;;;;;;27.77;12.50;;;;;;;2.15;98.35;100450.31;5058484;28;20462;-84
2022/12/09 14:04:15;;;;;;;25.85;11.38;;;;;;;2.18;98.38;100454.50;5058019;28;20082;-85
2022/12/09 14:06:43;;;;;;;27.52;12.02;;;;;;;2.13;97.27;100456.81;5057889;28;20081;-84
2022/12/09 14:09:26;;;;;;;27.40;11.95;;;;;;;2.08;97.79;100450.16;5057692;28;20064;-84
2022/12/09 14:11:56;;;;;;;27.05;12.18;;;;;;;1.95;97.59;100447.16;5076143;28;20035;-84
2022/12/09 14:14:24;;;;;;;26.88;12.23;;;;;;;1.92;98.08;100458.22;5057272;28;20064;-84
2022/12/09 14:16:50;;;;;;;25.42;12.15;;;;;;;1.84;97.58;100459.03;5057149;28;20032;-83
2022/12/09 14:19:24;;;;;;;28.53;12.30;;;;;;;1.72;96.69;100463.88;5075455;28;20024;-83
2022/12/09 14:22:18;;;;;;;27.42;11.68;;;;;;;1.67;97.43;100465.38;5056657;28;20076;-84
2022/12/09 14:24:50;;;;;;;26.08;11.13;;;;;;;1.59;97.39;100466.22;5056915;28;20396;-84
2022/12/09 14:27:31;;;;;;;32.38;12.80;;;;;;;1.49;97.49;100471.75;5075477;28;20089;-84
2022/12/09 14:30:24;;;;;;;27.67;12.25;;;;;;;1.48;97.74;100471.91;5074596;28;20031;-84
2022/12/09 14:32:50;;;;;;;28.83;11.50;;;;;;;1.44;97.57;100466.03;5033972;28;20036;-83
2022/12/09 14:35:24;;;;;;;26.38;11.40;;;;;;;1.39;98.09;100471.06;5057190;28;20058;-84
2022/12/09 14:38:01;;;;;;;28.77;12.27;;;;;;;1.33;97.92;100471.69;5057140;28;20102;-83
2022/12/09 14:40:41;;;;;;;30.25;12.65;;;;;;;1.22;97.87;100479.00;5074228;28;20024;-84
2022/12/09 14:43:46;;;;;;;28.13;10.90;;;;;;;1.19;98.34;100475.84;5057411;28;20059;-83
2022/12/09 14:46:25;;;;;;;24.08;11.20;;;;;;;1.15;98.83;100474.50;5056676;28;20035;-84
2022/12/09 14:49:19;;;;;;;31.02;11.63;;;;;;;1.20;99.82;100475.69;5057055;28;20033;-83
2022/12/09 14:51:53;;;;;;;27.60;11.70;;;;;;;1.31;100.00;100476.38;5054051;28;20036;-84
2022/12/09 14:54:32;;;;;;;26.67;11.77;;;;;;;1.33;99.58;100472.53;5074458;28;20044;-84
2022/12/09 14:57:00;;;;;;;26.02;11.40;;;;;;;1.30;99.66;100466.66;5057224;28;20028;-84
2022/12/09 14:59:28;;;;;;;27.75;11.25;;;;;;;1.27;99.11;100469.69;5056477;28;20032;-85
2022/12/09 15:02:18;;;;;;;28.08;12.18;;;;;;;1.20;99.14;100473.00;5074298;28;20048;-84
2022/12/09 15:04:46;;;;;;;24.15;11.27;;;;;;;1.02;98.70;100467.78;5057274;28;20036;-84
2022/12/09 15:07:21;;;;;;;26.98;12.18;;;;;;;0.98;99.77;100476.28;5056129;28;20032;-84
2022/12/09 15:09:46;;;;;;;31.20;12.05;;;;;;;0.90;99.72;100481.59;5056723;28;20142;-84
2022/12/09 15:12:15;;;;;;;28.43;12.43;;;;;;;0.85;100.00;100479.41;5056101;28;20058;-84
2022/12/09 15:14:43;;;;;;;28.27;12.00;;;;;;;0.80;100.00;100477.22;5074244;28;20032;-84
2022/12/09 15:17:23;;;;;;;28.83;12.23;;;;;;;0.76;99.59;100488.41;5056102;28;20025;-84
2022/12/09 15:19:48;;;;;;;30.83;12.65;;;;;;;0.70;100.00;100477.34;5074211;28;20115;-83
2022/12/09 15:22:27;;;;;;;30.37;12.50;;;;;;;0.68;100.00;100487.34;5073694;28;20108;-84
2022/12/09 15:24:53;;;;;;;32.33;12.02;;;;;;;0.65;100.00;100490.34;5056161;28;20032;-84
2022/12/09 15:27:23;;;;;;;26.65;11.15;;;;;;;0.63;100.00;100486.97;5073996;28;20111;-84
2022/12/09 15:29:50;;;;;;;31.27;12.00;;;;;;;0.61;100.00;100488.16;5039412;28;20032;-84
2022/12/09 15:32:29;;;;;;;29.25;12.80;;;;;;;0.58;100.00;100502.66;5074141;28;20404;-84
2022/12/09 15:35:16;;;;;;;29.95;12.40;;;;;;;0.60;100.00;100500.66;5056227;28;20036;-84
2022/12/09 15:37:43;;;;;;;29.88;12.63;;;;;;;0.56;100.00;100502.00;5073486;28;20451;-84
2022/12/09 15:40:14;;;;;;;26.13;11.40;;;;;;;0.48;100.00;100486.75;5055182;28;20070;-83
2022/12/09 15:42:50;;;;;;;31.20;12.90;;;;;;;0.41;100.00;100487.53;5056550;28;20091;-84
2022/12/09 15:45:25;;;;;;;31.65;13.35;;;;;;;0.38;100.00;100490.53;5074084;28;20263;-85
2022/12/09 15:48:03;;;;;;;30.08;12.50;;;;;;;0.33;100.00;100488.34;5055925;28;20119;-84
2022/12/09 15:50:46;;;;;;;32.97;11.70;;;;;;;0.25;100.00;100497.13;5056460;28;20024;-84
2022/12/09 15:53:16;;;;;;;27.92;12.40;;;;;;;0.19;100.00;100488.91;5055462;28;20089;-84
2022/12/09 15:55:54;;;;;;;27.55;12.20;;;;;;;0.15;100.00;100496.38;5073079;28;20032;-84
2022/12/09 15:58:24;;;;;;;31.60;13.10;;;;;;;0.06;100.00;100495.50;5055586;28;20059;-85